Aérodrome :
LOGIN :

S'inscrire | Disclaimer

   EN    FR    IT 

 










Légende :    VFR   VFR Marginal   IFR   IFR Intensif   IFR Très Intensif
Visi : 
Plafond : 
>= 8 km
>= 3000ft
5 à 8 km
1000 à 3000 ft
1500m à 5 km
500 à 1000 ft
800 à 1500m
200 à 500 ft
< 800m
< 200 ft
Symboles :   Orages  Brouillard  Fortes neiges  Fortes précipitations  Vent > 20 kt
SIGMETs :   Divers  Orages  Givrage  Turbulence  Onde Orograph.  Cendres Volcan.







- Altitude de l'aérodrome : 39 ft
- Code IATA : ANR


EBAW - Anvers / Antwerpen Deurne

DERNIER METAR :
  • 240420Z AUTO 23008KT 9999 // SCT005/// BKN007/// OVC008/// 16/14 Q1016

METARs EXPIRÉS :
  • 240350Z AUTO 24008KT 210V270 9999 // SCT007/// OVC008/// 16/14 Q1015
  • 240320Z AUTO 23008KT 9999 // SCT009/// 16/14 Q1015
  • 240250Z AUTO 24007KT 9999 // FEW007/// SCT009/// BKN010/// 16/14 Q1015
  • 240220Z AUTO 23007KT 9999 // BKN007/// 16/14 Q1015
  • 240150Z AUTO 23007KT 200V260 9999 // FEW008/// BKN038/// 16/14 Q1015

TAF TAF EBAW
Valide du 24 à 03h jusqu'au 24 à 12h UTC


240210Z 2403/2412 25007KT 9999 SCT025
Pas de NOTAMs connus pour ce terrain.



MET'MAP, la Météo Aéronautique d'un coup d'oeil ! - Copyright ORBIFLY Décembre 2007 - Disclaimer

ORBIFLY MET'MAP TEAM :

Programmation & Développement : Alexandra Zaïnal
Conception & Développement : Baudouin d'Aumeries
Co-Programmation & Développement : Marc-Olivier Méhu
Soutien technique & logistique : Manuel Goepfert

Contact : metmap@orbifly.com




SOURCES & CREDITS :

   NOAA